Marcionilio Souza, Brazil
Current Conditions -  °F | °C
As of 11:00 AM on Wednesday 22 Oct 2014 (Local Time) from SBQV Reporting Station
Overcast Overcast  
Wind Chill: 75°   Ceiling: 1800
Heat Index: 75°   Visibility: 6mi
Dew Point: 63°   Wind: 9mph
Humidity: 65%   Direction: 100°E
Pressure: 30.18"   Gusts: NA
Location:  13°S, 40.53°W
Report Text: SBQV 221400Z 10008KT 9999 OVC018 24/17 Q1022
Loading
Personal Weather Stations






























Interactive Weather Map
Tropical Storm Tracking
New forecast layout! Learn more

10-Day Weather Forecast

Advertisements
Track Severe Weather on mobile